Sejmchan, Russia
Current Conditions -  °F | °C
As of 12:00 AM on Friday 28 Nov 2014 (Local Time) from UHMM Reporting Station
Scattered Clouds Scattered Clouds  
Wind Chill: -15°   Ceiling: Unl
Heat Index: -15°   Visibility: 6mi
Dew Point: -18°   Wind: 2mph
Humidity: 84%   Direction: 100°E
Pressure: 29.94"   Gusts: NA
Location:  62.92°N, 152.42°E
Report Text: UHMM 271300Z 10001MPS 9999 SCT100 M26/M28 Q1014 RMK QFE746
Loading
Personal Weather Stations






























Interactive Weather Map New forecast layout! Learn more

10-Day Weather Forecast

Advertisements
Track Severe Weather on mobile